sensor_id;sensor_type;location;lat;lon;timestamp;temperature;humidity
54946;DHT22;40846;44.788;20.486;2022-09-09T02:06:56;614.80;2432.00
54946;DHT22;40846;44.788;20.486;2022-09-09T02:09:26;614.80;2432.00
54946;DHT22;40846;44.788;20.486;2022-09-09T02:12:00;614.70;2432.00
54946;DHT22;40846;44.788;20.486;2022-09-09T02:14:35;614.80;2432.00
54946;DHT22;40846;44.788;20.486;2022-09-09T02:17:07;614.70;2432.00
54946;DHT22;40846;44.788;20.486;2022-09-09T02:19:45;614.70;2432.00
54946;DHT22;40846;44.788;20.486;2022-09-09T02:22:16;614.80;2432.00
54946;DHT22;40846;44.788;20.486;2022-09-09T02:24:44;614.80;2432.00
54946;DHT22;40846;44.788;20.486;2022-09-09T02:27:12;614.80;2432.00
54946;DHT22;40846;44.788;20.486;2022-09-09T02:29:41;614.70;2432.00
54946;DHT22;40846;44.788;20.486;2022-09-09T02:32:22;614.70;2432.00
54946;DHT22;40846;44.788;20.486;2022-09-09T02:34:56;614.70;2432.00
54946;DHT22;40846;44.788;20.486;2022-09-09T02:37:29;614.70;2432.00
54946;DHT22;40846;44.788;20.486;2022-09-09T02:39:55;614.70;2432.00
54946;DHT22;40846;44.788;20.486;2022-09-09T02:42:21;614.80;2432.00
54946;DHT22;40846;44.788;20.486;2022-09-09T02:44:47;614.70;2432.00
54946;DHT22;40846;44.788;20.486;2022-09-09T02:47:29;614.80;2432.00
54946;DHT22;40846;44.788;20.486;2022-09-09T02:50:17;614.80;2432.00
54946;DHT22;40846;44.788;20.486;2022-09-09T02:57:53;614.80;2432.00
54946;DHT22;40846;44.788;20.486;2022-09-09T03:00:24;614.80;2432.00
54946;DHT22;40846;44.788;20.486;2022-09-09T03:02:50;614.80;2432.00
54946;DHT22;40846;44.788;20.486;2022-09-09T03:05:16;614.80;2432.00
54946;DHT22;40846;44.788;20.486;2022-09-09T03:07:42;614.60;2432.00
54946;DHT22;40846;44.788;20.486;2022-09-09T03:10:08;614.60;2432.00
54946;DHT22;40846;44.788;20.486;2022-09-09T03:12:35;614.60;2432.00
54946;DHT22;40846;44.788;20.486;2022-09-09T03:15:01;614.50;2432.00
54946;DHT22;40846;44.788;20.486;2022-09-09T03:17:27;614.60;2432.00
54946;DHT22;40846;44.788;20.486;2022-09-09T03:19:53;614.50;2432.00
54946;DHT22;40846;44.788;20.486;2022-09-09T03:22:20;614.60;2432.00
54946;DHT22;40846;44.788;20.486;2022-09-09T03:24:46;614.60;2432.00
54946;DHT22;40846;44.788;20.486;2022-09-09T03:27:12;614.60;2432.00
54946;DHT22;40846;44.788;20.486;2022-09-09T03:29:40;614.60;2432.00
54946;DHT22;40846;44.788;20.486;2022-09-09T03:32:05;614.60;2432.00
54946;DHT22;40846;44.788;20.486;2022-09-09T03:34:31;614.60;2432.00
54946;DHT22;40846;44.788;20.486;2022-09-09T03:36:57;614.60;2432.00
54946;DHT22;40846;44.788;20.486;2022-09-09T03:39:23;614.50;2432.00
54946;DHT22;40846;44.788;20.486;2022-09-09T03:41:48;614.50;2432.00
54946;DHT22;40846;44.788;20.486;2022-09-09T03:44:14;614.40;2432.00
54946;DHT22;40846;44.788;20.486;2022-09-09T03:46:40;614.40;2432.00
54946;DHT22;40846;44.788;20.486;2022-09-09T03:49:06;589.70;2432.00
54946;DHT22;40846;44.788;20.486;2022-09-09T03:51:31;589.70;2432.00
54946;DHT22;40846;44.788;20.486;2022-09-09T03:53:59;589.60;2432.00
54946;DHT22;40846;44.788;20.486;2022-09-09T03:56:26;589.60;2432.00
54946;DHT22;40846;44.788;20.486;2022-09-09T03:58:51;589.60;2432.00
54946;DHT22;40846;44.788;20.486;2022-09-09T04:01:17;589.50;2432.00
54946;DHT22;40846;44.788;20.486;2022-09-09T04:03:43;589.50;2432.00
54946;DHT22;40846;44.788;20.486;2022-09-09T04:06:10;589.40;2432.00
54946;DHT22;40846;44.788;20.486;2022-09-09T04:08:37;589.30;2432.00
54946;DHT22;40846;44.788;20.486;2022-09-09T04:11:04;589.20;2432.00
54946;DHT22;40846;44.788;20.486;2022-09-09T04:13:33;589.00;2432.00
54946;DHT22;40846;44.788;20.486;2022-09-09T04:16:01;588.90;2432.00
54946;DHT22;40846;44.788;20.486;2022-09-09T04:18:27;588.80;2432.00
54946;DHT22;40846;44.788;20.486;2022-09-09T04:20:54;588.80;2432.00
54946;DHT22;40846;44.788;20.486;2022-09-09T04:23:23;564.00;2432.00
54946;DHT22;40846;44.788;20.486;2022-09-09T04:25:52;563.80;2432.00
54946;DHT22;40846;44.788;20.486;2022-09-09T04:28:19;563.80;2432.00
54946;DHT22;40846;44.788;20.486;2022-09-09T04:30:46;563.70;2432.00
54946;DHT22;40846;44.788;20.486;2022-09-09T04:33:13;563.80;2432.00
54946;DHT22;40846;44.788;20.486;2022-09-09T04:35:47;563.50;2432.00
54946;DHT22;40846;44.788;20.486;2022-09-09T04:38:14;563.50;2432.00
54946;DHT22;40846;44.788;20.486;2022-09-09T04:40:47;563.50;2432.00
54946;DHT22;40846;44.788;20.486;2022-09-09T04:43:13;563.50;2432.00
54946;DHT22;40846;44.788;20.486;2022-09-09T04:45:40;563.50;2432.00
54946;DHT22;40846;44.788;20.486;2022-09-09T04:48:06;563.40;2432.00
54946;DHT22;40846;44.788;20.486;2022-09-09T04:50:32;563.50;2432.00
54946;DHT22;40846;44.788;20.486;2022-09-09T04:53:02;563.50;2432.00
54946;DHT22;40846;44.788;20.486;2022-09-09T04:55:29;563.50;2432.00
54946;DHT22;40846;44.788;20.486;2022-09-09T04:57:55;563.60;2432.00
54946;DHT22;40846;44.788;20.486;2022-09-09T05:00:22;563.60;2432.00
54946;DHT22;40846;44.788;20.486;2022-09-09T05:02:47;563.70;2432.00
54946;DHT22;40846;44.788;20.486;2022-09-09T05:05:13;563.70;2432.00
54946;DHT22;40846;44.788;20.486;2022-09-09T05:07:39;564.10;2432.00
54946;DHT22;40846;44.788;20.486;2022-09-09T05:10:05;563.80;2432.00
54946;DHT22;40846;44.788;20.486;2022-09-09T05:12:31;563.90;2432.00
54946;DHT22;40846;44.788;20.486;2022-09-09T05:14:57;563.90;2432.00
54946;DHT22;40846;44.788;20.486;2022-09-09T05:17:25;563.90;2432.00
54946;DHT22;40846;44.788;20.486;2022-09-09T05:19:51;564.10;2432.00
54946;DHT22;40846;44.788;20.486;2022-09-09T05:22:20;564.00;2432.00
54946;DHT22;40846;44.788;20.486;2022-09-09T05:24:46;564.00;2432.00
54946;DHT22;40846;44.788;20.486;2022-09-09T05:27:12;564.00;2432.00
54946;DHT22;40846;44.788;20.486;2022-09-09T05:29:38;563.90;2432.00
54946;DHT22;40846;44.788;20.486;2022-09-09T05:32:06;563.80;2432.00
54946;DHT22;40846;44.788;20.486;2022-09-09T05:34:32;563.80;2432.00
54946;DHT22;40846;44.788;20.486;2022-09-09T05:36:58;563.80;2432.00
54946;DHT22;40846;44.788;20.486;2022-09-09T05:39:23;563.80;2432.00
54946;DHT22;40846;44.788;20.486;2022-09-09T05:41:49;563.90;2432.00
54946;DHT22;40846;44.788;20.486;2022-09-09T05:44:15;563.90;2432.00
54946;DHT22;40846;44.788;20.486;2022-09-09T05:46:41;564.00;2432.00
54946;DHT22;40846;44.788;20.486;2022-09-09T05:49:07;564.00;2432.00
54946;DHT22;40846;44.788;20.486;2022-09-09T05:51:33;564.10;2432.00
54946;DHT22;40846;44.788;20.486;2022-09-09T05:53:59;564.00;2432.00
54946;DHT22;40846;44.788;20.486;2022-09-09T05:56:27;563.90;2432.00
54946;DHT22;40846;44.788;20.486;2022-09-09T05:58:54;563.90;2432.00
54946;DHT22;40846;44.788;20.486;2022-09-09T06:01:25;563.80;2432.00
54946;DHT22;40846;44.788;20.486;2022-09-09T06:03:52;563.70;2432.00
54946;DHT22;40846;44.788;20.486;2022-09-09T06:06:31;563.80;2432.00
54946;DHT22;40846;44.788;20.486;2022-09-09T06:08:57;563.90;2432.00
54946;DHT22;40846;44.788;20.486;2022-09-09T06:11:26;563.80;2432.00
54946;DHT22;40846;44.788;20.486;2022-09-09T06:13:52;563.90;2432.00
54946;DHT22;40846;44.788;20.486;2022-09-09T06:16:21;563.90;2432.00
54946;DHT22;40846;44.788;20.486;2022-09-09T06:18:51;563.90;2432.00
54946;DHT22;40846;44.788;20.486;2022-09-09T06:21:35;563.90;2432.00
54946;DHT22;40846;44.788;20.486;2022-09-09T06:24:02;564.00;2432.00
54946;DHT22;40846;44.788;20.486;2022-09-09T06:26:34;563.80;2432.00
54946;DHT22;40846;44.788;20.486;2022-09-09T06:29:01;564.00;2432.00
54946;DHT22;40846;44.788;20.486;2022-09-09T06:31:33;564.10;2432.00
54946;DHT22;40846;44.788;20.486;2022-09-09T06:34:00;564.10;2432.00
54946;DHT22;40846;44.788;20.486;2022-09-09T06:36:31;588.80;2432.00
54946;DHT22;40846;44.788;20.486;2022-09-09T06:38:58;564.10;2432.00
54946;DHT22;40846;44.788;20.486;2022-09-09T06:41:26;588.80;2432.00
54946;DHT22;40846;44.788;20.486;2022-09-09T06:43:52;564.10;2432.00
54946;DHT22;40846;44.788;20.486;2022-09-09T06:46:20;588.80;2432.00
54946;DHT22;40846;44.788;20.486;2022-09-09T06:48:47;588.90;2432.00
54946;DHT22;40846;44.788;20.486;2022-09-09T06:51:20;589.00;2432.00
54946;DHT22;40846;44.788;20.486;2022-09-09T06:53:49;588.90;2432.00
54946;DHT22;40846;44.788;20.486;2022-09-09T06:56:27;589.00;2432.00
54946;DHT22;40846;44.788;20.486;2022-09-09T06:58:54;588.90;2432.00
54946;DHT22;40846;44.788;20.486;2022-09-09T07:01:22;588.80;2432.00
54946;DHT22;40846;44.788;20.486;2022-09-09T07:03:51;588.80;2432.00
54946;DHT22;40846;44.788;20.486;2022-09-09T07:06:31;588.80;2432.00
54946;DHT22;40846;44.788;20.486;2022-09-09T07:08:59;564.10;2432.00
54946;DHT22;40846;44.788;20.486;2022-09-09T07:11:27;564.10;2432.00
54946;DHT22;40846;44.788;20.486;2022-09-09T07:13:54;564.00;2432.00
54946;DHT22;40846;44.788;20.486;2022-09-09T07:16:21;564.00;2432.00
54946;DHT22;40846;44.788;20.486;2022-09-09T07:18:51;563.90;2432.00
54946;DHT22;40846;44.788;20.486;2022-09-09T07:21:18;564.00;2432.00
54946;DHT22;40846;44.788;20.486;2022-09-09T07:23:44;563.90;2432.00
54946;DHT22;40846;44.788;20.486;2022-09-09T07:26:18;563.90;2432.00
54946;DHT22;40846;44.788;20.486;2022-09-09T07:28:47;563.90;2432.00
54946;DHT22;40846;44.788;20.486;2022-09-09T07:31:21;563.80;2432.00
54946;DHT22;40846;44.788;20.486;2022-09-09T07:33:48;563.80;2432.00
54946;DHT22;40846;44.788;20.486;2022-09-09T07:36:22;563.80;2432.00
54946;DHT22;40846;44.788;20.486;2022-09-09T07:38:53;563.60;2432.00
54946;DHT22;40846;44.788;20.486;2022-09-09T07:41:25;563.60;2432.00
54946;DHT22;40846;44.788;20.486;2022-09-09T07:43:53;563.70;2432.00
54946;DHT22;40846;44.788;20.486;2022-09-09T07:46:25;563.80;2432.00
54946;DHT22;40846;44.788;20.486;2022-09-09T07:48:53;563.60;2432.00
54946;DHT22;40846;44.788;20.486;2022-09-09T07:51:23;563.60;2432.00
54946;DHT22;40846;44.788;20.486;2022-09-09T07:53:53;563.70;2432.00
54946;DHT22;40846;44.788;20.486;2022-09-09T07:56:19;563.60;2432.00
54946;DHT22;40846;44.788;20.486;2022-09-09T07:58:50;563.70;2432.00
54946;DHT22;40846;44.788;20.486;2022-09-09T08:03:52;563.70;2432.00
54946;DHT22;40846;44.788;20.486;2022-09-09T08:06:18;563.70;2432.00
54946;DHT22;40846;44.788;20.486;2022-09-09T08:08:44;563.70;2432.00
54946;DHT22;40846;44.788;20.486;2022-09-09T08:11:14;563.80;2432.00
54946;DHT22;40846;44.788;20.486;2022-09-09T08:13:41;563.80;2432.00
54946;DHT22;40846;44.788;20.486;2022-09-09T08:16:28;563.80;2432.00
54946;DHT22;40846;44.788;20.486;2022-09-09T08:18:56;563.80;2432.00
54946;DHT22;40846;44.788;20.486;2022-09-09T08:21:25;563.90;2432.00
54946;DHT22;40846;44.788;20.486;2022-09-09T08:23:54;564.00;2432.00
54946;DHT22;40846;44.788;20.486;2022-09-09T08:26:26;564.00;2432.00
54946;DHT22;40846;44.788;20.486;2022-09-09T08:28:55;564.10;2432.00
54946;DHT22;40846;44.788;20.486;2022-09-09T08:31:31;564.10;2432.00
54946;DHT22;40846;44.788;20.486;2022-09-09T08:33:58;588.90;2432.00
54946;DHT22;40846;44.788;20.486;2022-09-09T08:36:27;588.90;2432.00
54946;DHT22;40846;44.788;20.486;2022-09-09T08:38:56;589.10;2432.00
54946;DHT22;40846;44.788;20.486;2022-09-09T08:41:44;589.00;2432.00
54946;DHT22;40846;44.788;20.486;2022-09-09T08:49:50;589.50;2432.00
54946;DHT22;40846;44.788;20.486;2022-09-09T09:46:27;692.10;2432.00
54946;DHT22;40846;44.788;20.486;2022-09-09T09:49:04;691.90;2432.00
54946;DHT22;40846;44.788;20.486;2022-09-09T09:51:32;691.80;2432.00
54946;DHT22;40846;44.788;20.486;2022-09-09T09:54:18;691.80;2432.00
54946;DHT22;40846;44.788;20.486;2022-09-09T09:56:46;691.80;2432.00
54946;DHT22;40846;44.788;20.486;2022-09-09T09:59:21;691.90;2432.00
54946;DHT22;40846;44.788;20.486;2022-09-09T10:01:47;691.90;2432.00
54946;DHT22;40846;44.788;20.486;2022-09-09T10:04:21;691.80;2432.00
54946;DHT22;40846;44.788;20.486;2022-09-09T10:06:49;716.80;2432.00
54946;DHT22;40846;44.788;20.486;2022-09-09T10:09:31;717.00;2432.00
54946;DHT22;40846;44.788;20.486;2022-09-09T10:23:04;716.90;2432.00
54946;DHT22;40846;44.788;20.486;2022-09-09T10:25:53;716.80;2432.00
54946;DHT22;40846;44.788;20.486;2022-09-09T11:38:34;691.80;2432.00
54946;DHT22;40846;44.788;20.486;2022-09-09T11:41:06;691.50;2432.00
54946;DHT22;40846;44.788;20.486;2022-09-09T11:44:12;691.50;2432.00
54946;DHT22;40846;44.788;20.486;2022-09-09T11:46:42;691.50;2432.00
54946;DHT22;40846;44.788;20.486;2022-09-09T11:49:41;691.50;2432.00
54946;DHT22;40846;44.788;20.486;2022-09-09T11:52:22;691.60;2432.00
54946;DHT22;40846;44.788;20.486;2022-09-09T11:54:49;691.70;2432.00
54946;DHT22;40846;44.788;20.486;2022-09-09T11:57:30;691.80;2432.00
54946;DHT22;40846;44.788;20.486;2022-09-09T12:02:28;716.80;2432.00
54946;DHT22;40846;44.788;20.486;2022-09-09T12:05:00;691.80;2432.00
54946;DHT22;40846;44.788;20.486;2022-09-09T12:12:46;716.90;2432.00
54946;DHT22;40846;44.788;20.486;2022-09-09T12:20:20;716.80;2432.00
54946;DHT22;40846;44.788;20.486;2022-09-09T12:38:20;717.30;2432.00
54946;DHT22;40846;44.788;20.486;2022-09-09T12:40:56;717.10;2432.00
54946;DHT22;40846;44.788;20.486;2022-09-09T12:43:25;717.10;2432.00
54946;DHT22;40846;44.788;20.486;2022-09-09T12:45:59;716.90;2432.00
54946;DHT22;40846;44.788;20.486;2022-09-09T12:48:38;716.90;2432.00
54946;DHT22;40846;44.788;20.486;2022-09-09T12:51:28;717.10;2432.00
54946;DHT22;40846;44.788;20.486;2022-09-09T12:53:58;717.10;2432.00
54946;DHT22;40846;44.788;20.486;2022-09-09T12:56:30;717.10;2432.00
54946;DHT22;40846;44.788;20.486;2022-09-09T12:58:57;717.00;2432.00
54946;DHT22;40846;44.788;20.486;2022-09-09T13:01:29;717.10;2432.00
54946;DHT22;40846;44.788;20.486;2022-09-09T13:03:55;716.80;2432.00
54946;DHT22;40846;44.788;20.486;2022-09-09T13:06:28;716.90;2432.00
54946;DHT22;40846;44.788;20.486;2022-09-09T13:08:58;717.10;2432.00
54946;DHT22;40846;44.788;20.486;2022-09-09T13:11:46;717.20;2432.00
54946;DHT22;40846;44.788;20.486;2022-09-09T13:14:35;717.20;2432.00
54946;DHT22;40846;44.788;20.486;2022-09-09T13:17:04;717.20;2432.00
54946;DHT22;40846;44.788;20.486;2022-09-09T13:19:37;717.30;2432.00
54946;DHT22;40846;44.788;20.486;2022-09-09T13:24:44;717.10;2432.00
54946;DHT22;40846;44.788;20.486;2022-09-09T13:27:41;717.20;2432.00
54946;DHT22;40846;44.788;20.486;2022-09-09T13:30:30;717.20;2432.00
54946;DHT22;40846;44.788;20.486;2022-09-09T13:33:22;717.10;2432.00
54946;DHT22;40846;44.788;20.486;2022-09-09T13:35:51;717.10;2432.00
54946;DHT22;40846;44.788;20.486;2022-09-09T13:38:18;717.20;2432.00
54946;DHT22;40846;44.788;20.486;2022-09-09T13:40:59;717.20;2432.00
54946;DHT22;40846;44.788;20.486;2022-09-09T13:43:28;717.10;2432.00
54946;DHT22;40846;44.788;20.486;2022-09-09T13:45:56;717.10;2432.00
54946;DHT22;40846;44.788;20.486;2022-09-09T13:48:24;717.10;2432.00
54946;DHT22;40846;44.788;20.486;2022-09-09T13:50:55;717.10;2432.00
54946;DHT22;40846;44.788;20.486;2022-09-09T13:53:21;717.10;2432.00
54946;DHT22;40846;44.788;20.486;2022-09-09T13:55:48;717.10;2432.00
54946;DHT22;40846;44.788;20.486;2022-09-09T13:58:20;717.20;2432.00
54946;DHT22;40846;44.788;20.486;2022-09-09T14:00:48;717.30;2432.00
54946;DHT22;40846;44.788;20.486;2022-09-09T14:03:15;717.30;2432.00
54946;DHT22;40846;44.788;20.486;2022-09-09T14:05:41;717.40;2432.00
54946;DHT22;40846;44.788;20.486;2022-09-09T14:08:15;717.40;2432.00
54946;DHT22;40846;44.788;20.486;2022-09-09T14:10:41;717.40;2432.00
54946;DHT22;40846;44.788;20.486;2022-09-09T14:13:07;717.30;2432.00
54946;DHT22;40846;44.788;20.486;2022-09-09T14:15:33;717.40;2432.00
54946;DHT22;40846;44.788;20.486;2022-09-09T14:17:59;717.40;2432.00
54946;DHT22;40846;44.788;20.486;2022-09-09T14:20:25;717.30;2432.00
54946;DHT22;40846;44.788;20.486;2022-09-09T14:22:51;717.30;2432.00
54946;DHT22;40846;44.788;20.486;2022-09-09T14:25:18;717.20;2432.00
54946;DHT22;40846;44.788;20.486;2022-09-09T14:27:44;717.20;2432.00
54946;DHT22;40846;44.788;20.486;2022-09-09T14:30:11;717.20;2432.00
54946;DHT22;40846;44.788;20.486;2022-09-09T14:32:37;717.20;2432.00
54946;DHT22;40846;44.788;20.486;2022-09-09T14:35:03;717.20;2432.00
54946;DHT22;40846;44.788;20.486;2022-09-09T14:37:29;717.20;2432.00
54946;DHT22;40846;44.788;20.486;2022-09-09T14:39:57;717.20;2432.00
54946;DHT22;40846;44.788;20.486;2022-09-09T14:42:28;717.20;2432.00
54946;DHT22;40846;44.788;20.486;2022-09-09T14:44:55;717.20;2432.00
54946;DHT22;40846;44.788;20.486;2022-09-09T14:47:21;717.10;2432.00
54946;DHT22;40846;44.788;20.486;2022-09-09T14:49:47;717.10;2432.00
54946;DHT22;40846;44.788;20.486;2022-09-09T14:52:15;717.10;2432.00
54946;DHT22;40846;44.788;20.486;2022-09-09T14:54:43;717.10;2432.00
54946;DHT22;40846;44.788;20.486;2022-09-09T14:57:09;717.10;2432.00
54946;DHT22;40846;44.788;20.486;2022-09-09T14:59:35;717.00;2432.00
54946;DHT22;40846;44.788;20.486;2022-09-09T15:02:01;717.00;2432.00
54946;DHT22;40846;44.788;20.486;2022-09-09T15:04:29;716.80;2432.00
54946;DHT22;40846;44.788;20.486;2022-09-09T15:06:55;716.90;2432.00
54946;DHT22;40846;44.788;20.486;2022-09-09T15:09:21;717.00;2432.00
54946;DHT22;40846;44.788;20.486;2022-09-09T15:11:46;717.00;2432.00
54946;DHT22;40846;44.788;20.486;2022-09-09T15:14:12;716.90;2432.00
54946;DHT22;40846;44.788;20.486;2022-09-09T15:16:39;716.80;2432.00
54946;DHT22;40846;44.788;20.486;2022-09-09T15:19:05;716.80;2432.00
54946;DHT22;40846;44.788;20.486;2022-09-09T15:21:34;716.80;2432.00
54946;DHT22;40846;44.788;20.486;2022-09-09T15:24:00;716.80;2432.00
54946;DHT22;40846;44.788;20.486;2022-09-09T15:26:26;716.90;2432.00
54946;DHT22;40846;44.788;20.486;2022-09-09T15:28:52;716.90;2432.00
54946;DHT22;40846;44.788;20.486;2022-09-09T15:31:30;716.90;2432.00
54946;DHT22;40846;44.788;20.486;2022-09-09T15:34:01;716.90;2432.00
54946;DHT22;40846;44.788;20.486;2022-09-09T15:36:41;716.80;2432.00
54946;DHT22;40846;44.788;20.486;2022-09-09T15:39:10;716.80;2432.00
54946;DHT22;40846;44.788;20.486;2022-09-09T15:41:45;716.80;2432.00
54946;DHT22;40846;44.788;20.486;2022-09-09T15:44:11;716.80;2432.00
54946;DHT22;40846;44.788;20.486;2022-09-09T15:46:42;716.80;2432.00
54946;DHT22;40846;44.788;20.486;2022-09-09T15:49:17;716.90;2432.00
54946;DHT22;40846;44.788;20.486;2022-09-09T15:51:50;716.90;2432.00
54946;DHT22;40846;44.788;20.486;2022-09-09T15:54:18;716.90;2432.00
54946;DHT22;40846;44.788;20.486;2022-09-09T15:56:45;716.90;2432.00
54946;DHT22;40846;44.788;20.486;2022-09-09T15:59:11;716.90;2432.00
54946;DHT22;40846;44.788;20.486;2022-09-09T16:01:38;716.80;2432.00
54946;DHT22;40846;44.788;20.486;2022-09-09T16:04:05;716.80;2432.00
54946;DHT22;40846;44.788;20.486;2022-09-09T16:06:31;716.90;2432.00
54946;DHT22;40846;44.788;20.486;2022-09-09T16:08:59;716.90;2432.00
54946;DHT22;40846;44.788;20.486;2022-09-09T16:11:31;716.90;2432.00
54946;DHT22;40846;44.788;20.486;2022-09-09T16:13:58;716.90;2432.00
54946;DHT22;40846;44.788;20.486;2022-09-09T16:16:26;692.00;2432.00
54946;DHT22;40846;44.788;20.486;2022-09-09T16:18:57;716.80;2432.00
54946;DHT22;40846;44.788;20.486;2022-09-09T16:21:26;716.80;2432.00
54946;DHT22;40846;44.788;20.486;2022-09-09T16:23:55;716.80;2432.00
54946;DHT22;40846;44.788;20.486;2022-09-09T16:26:22;692.10;2432.00
54946;DHT22;40846;44.788;20.486;2022-09-09T16:28:48;692.00;2432.00
54946;DHT22;40846;44.788;20.486;2022-09-09T16:31:17;716.80;2432.00
54946;DHT22;40846;44.788;20.486;2022-09-09T16:33:43;691.90;2432.00
54946;DHT22;40846;44.788;20.486;2022-09-09T16:36:12;691.90;2432.00
54946;DHT22;40846;44.788;20.486;2022-09-09T16:38:39;691.80;2432.00
54946;DHT22;40846;44.788;20.486;2022-09-09T16:41:06;691.80;2432.00
54946;DHT22;40846;44.788;20.486;2022-09-09T16:43:34;691.70;2432.00
54946;DHT22;40846;44.788;20.486;2022-09-09T16:46:00;691.60;2432.00
54946;DHT22;40846;44.788;20.486;2022-09-09T16:48:35;691.80;2432.00
54946;DHT22;40846;44.788;20.486;2022-09-09T16:51:04;691.60;2432.00
54946;DHT22;40846;44.788;20.486;2022-09-09T16:53:30;691.60;2432.00
54946;DHT22;40846;44.788;20.486;2022-09-09T16:55:55;691.50;2432.00
54946;DHT22;40846;44.788;20.486;2022-09-09T16:58:21;691.40;2432.00
54946;DHT22;40846;44.788;20.486;2022-09-09T17:00:47;691.50;2432.00
54946;DHT22;40846;44.788;20.486;2022-09-09T17:03:14;691.30;2432.00
54946;DHT22;40846;44.788;20.486;2022-09-09T17:05:40;691.30;2432.00
54946;DHT22;40846;44.788;20.486;2022-09-09T17:08:06;691.30;2432.00
54946;DHT22;40846;44.788;20.486;2022-09-09T17:10:32;691.30;2432.00
54946;DHT22;40846;44.788;20.486;2022-09-09T17:12:58;691.50;2432.00
54946;DHT22;40846;44.788;20.486;2022-09-09T17:15:24;691.40;2432.00
54946;DHT22;40846;44.788;20.486;2022-09-09T17:17:50;691.30;2432.00
54946;DHT22;40846;44.788;20.486;2022-09-09T19:50:10;615.00;2432.00
54946;DHT22;40846;44.788;20.486;2022-09-09T19:52:35;614.80;2432.00
54946;DHT22;40846;44.788;20.486;2022-09-09T20:02:22;614.80;2432.00
54946;DHT22;40846;44.788;20.486;2022-09-09T20:04:49;614.40;2432.00
54946;DHT22;40846;44.788;20.486;2022-09-09T20:07:15;614.40;2432.00
54946;DHT22;40846;44.788;20.486;2022-09-09T20:09:40;614.40;2432.00
54946;DHT22;40846;44.788;20.486;2022-09-09T20:12:06;614.50;2432.00
54946;DHT22;40846;44.788;20.486;2022-09-09T20:14:33;614.40;2432.00
54946;DHT22;40846;44.788;20.486;2022-09-09T20:16:58;614.40;2432.00
54946;DHT22;40846;44.788;20.486;2022-09-09T20:19:24;589.70;2432.00
54946;DHT22;40846;44.788;20.486;2022-09-09T20:21:50;589.60;2432.00
54946;DHT22;40846;44.788;20.486;2022-09-09T20:24:19;589.60;2432.00
54946;DHT22;40846;44.788;20.486;2022-09-09T20:26:47;589.70;2432.00
54946;DHT22;40846;44.788;20.486;2022-09-09T20:29:15;614.40;2432.00
54946;DHT22;40846;44.788;20.486;2022-09-09T20:31:41;614.50;2432.00
54946;DHT22;40846;44.788;20.486;2022-09-09T20:34:11;614.40;2432.00
54946;DHT22;40846;44.788;20.486;2022-09-09T20:36:40;614.40;2432.00
54946;DHT22;40846;44.788;20.486;2022-09-09T20:39:08;614.40;2432.00
54946;DHT22;40846;44.788;20.486;2022-09-09T20:41:36;614.40;2432.00
54946;DHT22;40846;44.788;20.486;2022-09-09T20:44:06;614.40;2432.00
54946;DHT22;40846;44.788;20.486;2022-09-09T20:46:35;614.40;2432.00
54946;DHT22;40846;44.788;20.486;2022-09-09T20:49:03;614.40;2432.00
54946;DHT22;40846;44.788;20.486;2022-09-09T20:51:30;614.40;2432.00
54946;DHT22;40846;44.788;20.486;2022-09-09T20:54:05;589.70;2432.00
54946;DHT22;40846;44.788;20.486;2022-09-09T20:56:34;589.60;2432.00
54946;DHT22;40846;44.788;20.486;2022-09-09T20:59:03;589.70;2432.00
54946;DHT22;40846;44.788;20.486;2022-09-09T21:01:29;589.50;2432.00
54946;DHT22;40846;44.788;20.486;2022-09-09T21:03:55;589.40;2432.00
54946;DHT22;40846;44.788;20.486;2022-09-09T21:06:21;589.30;2432.00
54946;DHT22;40846;44.788;20.486;2022-09-09T21:08:48;589.20;2432.00
54946;DHT22;40846;44.788;20.486;2022-09-09T21:11:14;589.20;2432.00
54946;DHT22;40846;44.788;20.486;2022-09-09T21:13:40;589.10;2432.00
54946;DHT22;40846;44.788;20.486;2022-09-09T21:16:08;589.10;2432.00
54946;DHT22;40846;44.788;20.486;2022-09-09T21:18:35;589.10;2432.00
54946;DHT22;40846;44.788;20.486;2022-09-09T21:21:02;589.10;2432.00
54946;DHT22;40846;44.788;20.486;2022-09-09T21:23:28;589.10;2432.00
54946;DHT22;40846;44.788;20.486;2022-09-09T21:25:54;589.10;2432.00
54946;DHT22;40846;44.788;20.486;2022-09-09T21:28:21;589.10;2432.00
54946;DHT22;40846;44.788;20.486;2022-09-09T21:30:49;589.10;2432.00
54946;DHT22;40846;44.788;20.486;2022-09-09T21:33:16;589.10;2432.00
54946;DHT22;40846;44.788;20.486;2022-09-09T21:35:42;589.10;2432.00
54946;DHT22;40846;44.788;20.486;2022-09-09T21:38:13;589.10;2432.00
54946;DHT22;40846;44.788;20.486;2022-09-09T21:40:40;589.00;2432.00
54946;DHT22;40846;44.788;20.486;2022-09-09T21:43:07;589.00;2432.00
54946;DHT22;40846;44.788;20.486;2022-09-09T21:45:37;589.00;2432.00
54946;DHT22;40846;44.788;20.486;2022-09-09T21:48:08;588.90;2432.00
54946;DHT22;40846;44.788;20.486;2022-09-09T21:50:46;588.80;2432.00
54946;DHT22;40846;44.788;20.486;2022-09-09T21:53:14;588.80;2432.00
54946;DHT22;40846;44.788;20.486;2022-09-09T21:55:42;564.10;2432.00
54946;DHT22;40846;44.788;20.486;2022-09-09T21:58:08;564.00;2432.00
54946;DHT22;40846;44.788;20.486;2022-09-09T22:00:35;564.00;2432.00
54946;DHT22;40846;44.788;20.486;2022-09-09T22:03:01;563.90;2432.00
54946;DHT22;40846;44.788;20.486;2022-09-09T22:05:29;563.80;2432.00
54946;DHT22;40846;44.788;20.486;2022-09-09T22:07:56;563.90;2432.00
54946;DHT22;40846;44.788;20.486;2022-09-09T22:10:22;563.80;2432.00
54946;DHT22;40846;44.788;20.486;2022-09-09T22:12:51;563.90;2432.00
54946;DHT22;40846;44.788;20.486;2022-09-09T22:15:17;563.90;2432.00
54946;DHT22;40846;44.788;20.486;2022-09-09T22:17:43;563.80;2432.00
54946;DHT22;40846;44.788;20.486;2022-09-09T22:20:09;563.80;2432.00
54946;DHT22;40846;44.788;20.486;2022-09-09T22:22:37;563.80;2432.00
54946;DHT22;40846;44.788;20.486;2022-09-09T22:25:03;563.80;2432.00
54946;DHT22;40846;44.788;20.486;2022-09-09T22:27:29;563.50;2432.00
54946;DHT22;40846;44.788;20.486;2022-09-09T22:34:47;563.50;2432.00